Morrisdale, PA (16858)

10:36 AM EST on February 14, 2016 (GMT -0500)
Winburne | | Change Station
CLOSE
Current Station
Personal Weather Station
Location: Winburne, PA
Elevation: 1457 ft
Nearby Weather Stations
Active Advisory: Wind Chill Advisory

Elev 1457 ft 40.96 °N, 78.14 °W | Updated 9 minutes ago

Clear
Clear
11.8 °F
Feels Like 12 °F
N
0.0
Wind Variable Wind from NW

Today
High -- | Low -- °F
--% Chance of Precip.
Yesterday
High -- | Low -- °F
Precip. -- in
Pressure 30.51 in
Visibility 10.0 miles
Clouds Few 2600 ft
Windchill 12 °F
Dew Point -1 °F
Humidity 55%
Rainfall 0.00 in
Snow Depth Not available.
7:09 AM 5:45 PM
Waxing Crescent, 42% visible
METAR KFIG 141454Z AUTO 32007KT 10SM UP FEW026 M13/M19 A3039 RMK AO2 UPB51 SLP329 P0000 60000 T11331194 50004
Pressure 30.51 in
Visibility 10.0 miles
Clouds Few 2600 ft
Windchill 12 °F
Dew Point -1 °F
Humidity 55%
Rainfall 0.00 in
Snow Depth Not available.
7:09 AM 5:45 PM
Waxing Crescent, 42% visible
METAR KFIG 141454Z AUTO 32007KT 10SM UP FEW026 M13/M19 A3039 RMK AO2 UPB51 SLP329 P0000 60000 T11331194 50004

10-Day Weather Forecast

Almanac

Astronomy

Feb. 14, 2016 Rise Set
Actual Time
Civil Twilight
Nautical Twilight
Astronomical Twilight
Moon
Length of Visible Light
Length of Day
Tomorrow will be .
, % of the Moon is Illuminated

Today's Extremes

State Highs State Lows

Community

WunderPhotos

Upload Photos

1,892,795 photos uploaded!

WunderBlog® & News

Nearby

Air Quality

  Air Quality AQ Index Pollutant
Not available.

Snow Depth

Station Depth Elevation

Earthquake Activity

City Distance Mag. Time & Date
Minimum magnitude displayed is 2.5.

Coastal Water Temperatures

Place Temperature

Stations

Nearby Weather Stations

Station Location Temp. Windchill Dew Point Humidity Wind Precip. Elev Updated Type
                   

Watches & Warnings

Wind Chill Advisory
Issued: 4:55 AM EST Feb. 14, 2016 – National Weather Service

... Wind Chill Advisory remains in effect until 11 am EST this
morning...

* locations... most of central and southern Pennsylvania.

* Hazard types... dangerously cold wind chills.

* Timing... through late morning.

* Wind chills... 10 to 15 below zero.

* Impacts... frostbite to exposed skin in just 15 to 30 minutes.
Hypothermia possible.


Precautionary/preparedness actions...

If you will be outdoors... dress in layers and wear a hat and
gloves. Young children... the elderly and the homeless are
especially vulnerable to the cold. Appropriate action should be
taken to ensure pets have adequate protection from the cold
temperatures.